Time;durP1;ratioP1;P1;durP2;ratioP2;P2;SDS_P1;SDS_P2;PMS_P1;PMS_P2;Temp;Humidity;BMP_temperature;BMP_pressure;BME280_temperature;BME280_humidity;BME280_pressure;Samples;Min_cycle;Max_cycle;Signal;HPM_P1;HPM_P2
2022/10/07 00:01:02;;;;;;;3.70;1.05;;;;;;;13.05;84.76;100580.22;4236036;33;34467;-78
2022/10/07 00:03:31;;;;;;;1.90;1.55;;;;;;;13.31;82.99;100571.47;4248388;33;33631;-79
2022/10/07 00:06:00;;;;;;;1.05;1.00;;;;;;;13.13;85.19;100577.56;4248416;33;34574;-81
2022/10/07 00:08:29;;;;;;;0.77;0.77;;;;;;;13.50;81.86;100577.53;4248340;33;34987;-76
2022/10/07 00:10:57;;;;;;;1.33;1.20;;;;;;;13.13;84.71;100577.56;4248300;33;34473;-81
2022/10/07 00:13:25;;;;;;;1.75;0.80;;;;;;;13.09;84.16;100572.37;4235441;33;33298;-74
2022/10/07 00:15:52;;;;;;;1.40;1.30;;;;;;;13.48;82.57;100576.69;4248179;33;34685;-81
2022/10/07 00:18:21;;;;;;;1.35;1.25;;;;;;;12.90;84.40;100568.03;4248487;33;34862;-81
2022/10/07 00:20:48;;;;;;;1.27;1.17;;;;;;;13.23;83.37;100564.47;4235634;33;34528;-82
2022/10/07 00:23:16;;;;;;;0.73;0.73;;;;;;;13.30;83.44;100569.72;4248185;33;33500;-74
2022/10/07 00:25:44;;;;;;;0.60;0.60;;;;;;;13.33;83.18;100570.62;4248322;33;34110;-77
2022/10/07 00:28:12;;;;;;;1.05;0.98;;;;;;;12.82;84.13;100564.53;4248110;33;34977;-82
2022/10/07 00:30:40;;;;;;;1.17;0.93;;;;;;;12.93;84.09;100570.62;4248146;33;35235;-81
2022/10/07 00:33:09;;;;;;;1.23;0.85;;;;;;;13.34;82.00;100561.91;4248158;33;33667;-75
2022/10/07 00:35:37;;;;;;;0.43;0.43;;;;;;;13.77;78.42;100561.75;4248280;33;34094;-75
2022/10/07 00:38:05;;;;;;;1.05;0.95;;;;;;;13.48;80.08;100560.97;4247988;33;34940;-75
2022/10/07 00:40:33;;;;;;;0.85;0.85;;;;;;;13.19;81.31;100556.66;4235430;33;34554;-81
2022/10/07 00:43:18;;;;;;;1.65;1.25;;;;;;;13.68;77.51;100559.19;4248374;33;34229;-78
2022/10/07 00:45:46;;;;;;;1.95;1.12;;;;;;;13.60;77.23;100560.94;4248122;33;34020;-81
2022/10/07 00:48:18;;;;;;;1.60;1.48;;;;;;;13.47;77.12;100552.28;4235355;33;34904;-81
2022/10/07 00:50:48;;;;;;;0.77;0.77;;;;;;;13.27;78.44;100553.16;4235713;33;34300;-81
2022/10/07 00:53:16;;;;;;;1.00;0.80;;;;;;;13.42;76.95;100549.66;4248097;33;33384;-75
2022/10/07 00:55:44;;;;;;;8.15;3.15;;;;;;;12.90;81.04;100554.97;4235320;33;34631;-82
2022/10/07 00:58:12;;;;;;;1.58;1.48;;;;;;;12.89;82.30;100555.81;4248005;33;35118;-75
2022/10/07 01:00:41;;;;;;;0.68;0.68;;;;;;;12.75;83.33;100558.44;4235499;33;34460;-82
2022/10/07 01:03:08;;;;;;;1.50;1.40;;;;;;;13.19;80.41;100551.44;4247960;33;33432;-79
2022/10/07 01:05:36;;;;;;;2.10;1.52;;;;;;;12.98;82.65;100552.34;4247956;33;33984;-77
2022/10/07 01:08:04;;;;;;;1.23;0.90;;;;;;;13.02;80.98;100544.50;4247845;33;35144;-76
2022/10/07 01:10:40;;;;;;;0.82;0.82;;;;;;;12.77;80.20;100546.25;4247929;33;34482;-81
2022/10/07 01:13:25;;;;;;;1.77;1.35;;;;;;;12.69;80.58;100545.37;4247909;33;33418;-81
2022/10/07 01:16:23;;;;;;;0.75;0.70;;;;;;;13.00;79.52;100545.34;4223680;33;34877;-81
2022/10/07 01:19:08;;;;;;;0.68;0.68;;;;;;;12.90;79.98;100542.75;4244995;33;35901;-75
2022/10/07 01:22:00;;;;;;;0.82;0.82;;;;;;;12.81;79.82;100545.37;4235589;33;34480;-74
2022/10/07 01:24:32;;;;;;;1.00;1.00;;;;;;;12.43;82.90;100543.62;4235496;33;34246;-81
2022/10/07 01:27:03;;;;;;;0.80;0.80;;;;;;;12.40;81.00;100543.59;4235479;33;34166;-74
2022/10/07 01:29:41;;;;;;;0.85;0.85;;;;;;;12.67;80.03;100542.78;4235286;33;35262;-74
2022/10/07 01:32:13;;;;;;;1.30;1.20;;;;;;;12.81;78.67;100544.50;4235083;33;34566;-75
2022/10/07 01:34:41;;;;;;;1.12;1.02;;;;;;;12.31;80.75;100544.47;4235171;33;34300;-81
2022/10/07 01:37:13;;;;;;;1.80;1.70;;;;;;;12.52;79.96;100545.37;4234988;33;34063;-77
2022/10/07 01:39:47;;;;;;;1.23;1.10;;;;;;;12.59;79.35;100539.28;4235519;33;35018;-81
2022/10/07 01:42:16;;;;;;;1.15;1.10;;;;;;;12.40;80.59;100545.34;4235129;33;34625;-78
2022/10/07 01:44:47;;;;;;;0.75;0.75;;;;;;;12.45;80.09;100541.87;4235110;33;34289;-80
2022/10/07 01:47:16;;;;;;;1.62;1.10;;;;;;;12.46;79.54;100546.25;4235207;33;33882;-81
2022/10/07 01:49:44;;;;;;;0.65;0.65;;;;;;;11.89;83.21;100546.06;4235117;33;34374;-77
2022/10/07 01:52:50;;;;;;;1.77;1.10;;;;;;;11.72;85.39;100535.59;4248046;33;35173;-81
2022/10/07 01:55:56;;;;;;;2.00;1.77;;;;;;;12.32;82.44;100540.12;4224461;33;34335;-81
2022/10/07 01:58:58;;;;;;;0.80;0.80;;;;;;;12.40;79.55;100546.22;4217320;34;33966;-78
2022/10/07 02:01:55;;;;;;;1.08;1.08;;;;;;;12.40;79.09;100540.12;4247927;33;34894;-77
2022/10/07 02:04:47;;;;;;;2.65;1.58;;;;;;;12.23;79.67;100538.37;4234970;33;34464;-82
2022/10/07 02:07:24;;;;;;;1.25;1.15;;;;;;;11.74;82.44;100540.81;4235517;33;33383;-75
2022/10/07 02:09:53;;;;;;;0.40;0.40;;;;;;;12.07;81.10;100534.88;4247806;33;33868;-81
2022/10/07 02:12:29;;;;;;;1.33;1.20;;;;;;;11.62;82.52;100551.22;4247405;33;35214;-77
2022/10/07 02:15:18;;;;;;;0.95;0.88;;;;;;;11.57;82.67;100544.22;4235248;33;34257;-81
2022/10/07 02:17:52;;;;;;;1.65;1.00;;;;;;;12.06;81.72;100547.91;4235373;33;33524;-81
2022/10/07 02:20:26;;;;;;;1.52;1.37;;;;;;;11.83;83.65;100542.59;4246998;33;34905;-79
2022/10/07 02:22:57;;;;;;;0.50;0.50;;;;;;;12.28;80.50;100540.97;4234845;33;35170;-78
2022/10/07 02:25:27;;;;;;;0.95;0.95;;;;;;;12.25;79.90;100548.84;4223174;33;34687;-80
2022/10/07 02:27:56;;;;;;;2.05;1.95;;;;;;;12.10;79.70;100541.81;4223383;33;32905;-75
2022/10/07 02:30:25;;;;;;;0.60;0.60;;;;;;;12.13;80.34;100539.22;4235144;33;33946;-75
2022/10/07 02:32:56;;;;;;;0.73;0.73;;;;;;;11.85;82.99;100535.63;4234574;33;36021;-77
2022/10/07 02:35:46;;;;;;;0.52;0.52;;;;;;;11.91;81.45;100533.97;4234778;33;35087;-81
2022/10/07 02:38:16;;;;;;;0.82;0.82;;;;;;;11.83;81.55;100535.63;4234701;33;33428;-81
2022/10/07 02:41:07;;;;;;;0.68;0.68;;;;;;;11.94;80.58;100531.34;4235090;33;34141;-76
2022/10/07 02:43:45;;;;;;;2.22;1.33;;;;;;;12.08;79.75;100538.34;4235124;33;34668;-75
2022/10/07 02:47:02;;;;;;;15.70;4.72;;;;;;;11.81;80.76;100532.16;4234784;33;35008;-81
2022/10/07 02:49:36;;;;;;;0.60;0.60;;;;;;;11.97;80.32;100533.09;4221074;33;33548;-78
2022/10/07 02:52:07;;;;;;;0.65;0.52;;;;;;;11.85;81.47;100527.81;4234946;33;34745;-76
2022/10/07 02:55:00;;;;;;;1.40;0.95;;;;;;;11.81;81.43;100532.16;4234937;33;34743;-81
2022/10/07 02:57:30;;;;;;;1.15;1.15;;;;;;;12.08;79.55;100525.28;4222893;33;34749;-80
2022/10/07 02:59:59;;;;;;;0.40;0.40;;;;;;;12.13;79.10;100528.78;4234970;33;32708;-77
2022/10/07 03:02:45;;;;;;;1.00;1.00;;;;;;;12.01;78.97;100533.97;4235022;33;32523;-75
2022/10/07 03:05:18;;;;;;;1.05;0.95;;;;;;;11.50;81.52;100524.19;4234710;33;35091;-80
2022/10/07 03:07:53;;;;;;;1.58;1.48;;;;;;;11.90;79.63;100531.31;4235024;33;34265;-76
2022/10/07 03:10:21;;;;;;;0.77;0.73;;;;;;;12.02;79.00;100525.25;4234526;33;33339;-78
2022/10/07 03:12:49;;;;;;;0.45;0.45;;;;;;;11.92;79.35;100522.63;4247135;33;34678;-80
2022/10/07 03:15:19;;;;;;;1.75;0.98;;;;;;;11.87;79.66;100526.94;4247308;33;35154;-80
2022/10/07 03:17:47;;;;;;;1.95;1.85;;;;;;;11.53;80.81;100524.19;4234362;33;34433;-75
2022/10/07 03:20:15;;;;;;;1.15;1.15;;;;;;;11.78;79.80;100524.28;4222647;33;32019;-75
2022/10/07 03:22:43;;;;;;;0.55;0.55;;;;;;;11.72;79.53;100526.91;4247303;33;33955;-81
2022/10/07 03:25:13;;;;;;;0.85;0.85;;;;;;;11.77;79.08;100525.19;4247117;33;35066;-81
2022/10/07 03:27:41;;;;;;;1.02;1.02;;;;;;;11.66;79.50;100521.66;4222853;33;33848;-76
2022/10/07 03:30:11;;;;;;;1.00;1.00;;;;;;;11.65;79.63;100514.69;4234586;33;34263;-81
2022/10/07 03:32:40;;;;;;;1.00;1.00;;;;;;;11.52;79.75;100514.66;4247599;33;34794;-81
2022/10/07 03:35:09;;;;;;;1.08;0.85;;;;;;;11.20;81.24;100523.16;4236168;33;34938;-75
2022/10/07 03:37:37;;;;;;;0.88;0.88;;;;;;;10.93;84.06;100528.22;4248435;33;34626;-81
2022/10/07 03:40:07;;;;;;;0.68;0.68;;;;;;;11.04;85.67;100533.50;4248637;33;34284;-78
2022/10/07 03:42:36;;;;;;;0.65;0.65;;;;;;;11.63;80.84;100526.84;4236039;33;33968;-81
2022/10/07 03:45:05;;;;;;;1.60;1.50;;;;;;;11.58;79.54;100522.50;4236084;33;35967;-81
2022/10/07 03:47:35;;;;;;;0.70;0.70;;;;;;;11.06;83.90;100519.59;4235843;33;34571;-81
2022/10/07 03:50:03;;;;;;;1.02;1.02;;;;;;;11.23;83.83;100521.47;4248642;33;34158;-75
2022/10/07 03:52:31;;;;;;;0.90;0.90;;;;;;;11.34;83.14;100525.84;4248620;33;34052;-78
2022/10/07 03:55:00;;;;;;;4.10;2.20;;;;;;;11.05;84.98;100517.88;4248463;33;35088;-81
2022/10/07 04:00:22;;;;;;;2.30;2.10;;;;;;;11.27;82.11;100523.22;4248680;33;33432;-76
2022/10/07 04:02:51;;;;;;;1.75;1.65;;;;;;;11.48;80.52;100518.09;4236002;33;33926;-81
2022/10/07 04:05:20;;;;;;;1.10;0.80;;;;;;;11.25;81.73;100517.97;4248639;33;35165;-81
2022/10/07 04:07:49;;;;;;;2.00;1.27;;;;;;;11.31;80.87;100509.31;4248225;33;35307;-81
2022/10/07 04:10:18;;;;;;;1.20;1.08;;;;;;;11.41;80.12;100513.72;4236085;33;34562;-82
2022/10/07 04:12:47;;;;;;;0.85;0.85;;;;;;;10.89;83.67;100509.09;4235688;33;33908;-81
2022/10/07 04:15:15;;;;;;;1.17;1.08;;;;;;;11.14;81.94;100514.44;4235973;33;35876;-81
2022/10/07 04:17:45;;;;;;;0.90;0.90;;;;;;;11.25;82.04;100511.91;4248431;33;34611;-79
2022/10/07 04:20:15;;;;;;;1.17;1.12;;;;;;;11.08;83.81;100507.47;4248461;33;33468;-75
2022/10/07 04:22:43;;;;;;;1.65;1.00;;;;;;;11.41;80.28;100508.50;4248459;33;33995;-80
2022/10/07 04:27:58;;;;;;;;;;;;;;;11.04;81.09;100500.47;4235593;33;33855;-78
2022/10/07 04:30:32;;;;;;;0.98;0.95;;;;;;;11.08;82.14;100502.25;4235822;33;33454;-80
2022/10/07 04:33:01;;;;;;;2.80;1.33;;;;;;;10.71;85.18;100502.03;4248221;33;34101;-81
2022/10/07 04:35:29;;;;;;;1.20;1.10;;;;;;;11.00;83.78;100501.34;4235905;33;34608;-80
2022/10/07 04:37:57;;;;;;;0.68;0.68;;;;;;;10.65;84.69;100499.34;4235450;33;34174;-81
2022/10/07 04:40:26;;;;;;;1.12;1.02;;;;;;;11.18;82.17;100503.16;4248269;33;33503;-79
2022/10/07 04:45:41;;;;;;;1.20;1.10;;;;;;;10.95;81.37;100498.69;4247746;33;35792;-74
2022/10/07 04:48:09;;;;;;;1.08;0.90;;;;;;;10.94;82.87;100499.56;4247937;33;35224;-75
2022/10/07 04:50:38;;;;;;;0.68;0.68;;;;;;;11.28;80.49;100498.88;4247786;33;34290;-78
2022/10/07 04:53:09;;;;;;;0.77;0.77;;;;;;;11.36;80.12;100510.22;4235317;33;33931;-74
2022/10/07 04:55:38;;;;;;;1.35;1.33;;;;;;;11.18;80.36;100517.06;4235294;33;35150;-78
2022/10/07 04:58:07;;;;;;;0.57;0.57;;;;;;;11.19;80.62;100510.12;4235234;33;35234;-73
2022/10/07 05:00:47;;;;;;;0.57;0.57;;;;;;;11.17;80.99;100512.72;4248063;33;34433;-79
2022/10/07 05:03:17;;;;;;;0.80;0.80;;;;;;;11.21;80.30;100513.62;4236014;33;33174;-78
2022/10/07 05:05:51;;;;;;;3.05;2.80;;;;;;;11.20;80.44;100512.72;4248028;33;35876;-73
2022/10/07 05:08:23;;;;;;;0.60;0.60;;;;;;;11.04;82.41;100510.03;4247830;33;34689;-74
2022/10/07 05:10:56;;;;;;;0.60;0.60;;;;;;;11.14;82.72;100514.44;4235330;33;34264;-74
2022/10/07 05:13:26;;;;;;;2.85;1.87;;;;;;;11.08;83.93;100512.69;4248759;33;33124;-75
2022/10/07 05:15:59;;;;;;;2.67;1.62;;;;;;;11.11;84.02;100517.03;4249380;33;34115;-74
2022/10/07 05:18:32;;;;;;;1.50;1.35;;;;;;;10.84;85.41;100520.34;4238615;33;34780;-74
2022/10/07 05:21:06;;;;;;;0.93;0.93;;;;;;;11.02;83.45;100517.84;4247711;33;33339;-76
2022/10/07 05:23:36;;;;;;;1.90;1.75;;;;;;;11.12;84.90;100524.00;4224019;33;34059;-74
2022/10/07 05:26:09;;;;;;;1.92;1.73;;;;;;;11.17;85.37;100530.97;4247880;33;35051;-73
2022/10/07 05:28:38;;;;;;;1.33;1.23;;;;;;;11.38;85.07;100531.94;4235518;33;34579;-74
2022/10/07 05:31:10;;;;;;;1.48;1.25;;;;;;;11.67;83.19;100523.41;4248042;33;32658;-74
2022/10/07 05:33:39;;;;;;;1.08;1.02;;;;;;;11.50;85.47;100526.78;4235458;33;34051;-74
2022/10/07 05:36:08;;;;;;;1.40;1.30;;;;;;;11.85;83.91;100528.66;4247695;33;35085;-77
2022/10/07 05:38:37;;;;;;;0.90;0.90;;;;;;;12.24;81.49;100527.03;4234902;33;34539;-74
2022/10/07 05:41:07;;;;;;;1.15;1.05;;;;;;;12.13;82.45;100529.66;4247397;33;33526;-74
2022/10/07 05:43:38;;;;;;;1.77;1.67;;;;;;;12.59;81.27;100523.59;4235364;33;33179;-74
2022/10/07 05:46:10;;;;;;;2.50;1.10;;;;;;;13.01;82.63;100537.50;4234974;33;35804;-74
2022/10/07 05:48:39;;;;;;;1.25;1.12;;;;;;;13.24;84.09;100534.00;4235121;33;34131;-75
2022/10/07 05:51:07;;;;;;;1.50;1.33;;;;;;;13.89;79.53;100528.53;4247965;33;33708;-77
2022/10/07 05:53:39;;;;;;;1.50;1.40;;;;;;;13.97;79.62;100529.34;4247526;33;33950;-73
2022/10/07 05:56:11;;;;;;;1.50;1.40;;;;;;;13.68;80.60;100533.00;4234611;33;35106;-73
2022/10/07 05:58:39;;;;;;;2.58;2.25;;;;;;;14.30;79.40;100530.03;4247527;33;34381;-74
2022/10/07 06:01:13;;;;;;;1.05;0.98;;;;;;;14.93;77.33;100530.44;4247412;33;33505;-74
2022/10/07 06:03:42;;;;;;;1.20;1.10;;;;;;;15.19;78.77;100529.28;4247782;33;34110;-74
2022/10/07 06:06:11;;;;;;;1.45;1.35;;;;;;;15.68;74.02;100539.22;4247595;33;34807;-74
2022/10/07 06:08:39;;;;;;;3.10;2.40;;;;;;;15.95;74.37;100547.66;4247772;33;34093;-74
2022/10/07 06:14:00;;;;;;;1.20;1.10;;;;;;;16.27;72.36;100548.94;4236588;33;33926;-74
2022/10/07 06:16:28;;;;;;;2.67;1.95;;;;;;;16.40;71.68;100553.16;4229173;33;35187;-78
2022/10/07 06:18:56;;;;;;;1.52;1.42;;;;;;;16.48;72.32;100553.03;4247010;33;35299;-75
2022/10/07 06:21:26;;;;;;;2.08;1.45;;;;;;;16.59;71.73;100550.22;4235161;33;33495;-75
2022/10/07 06:23:57;;;;;;;1.52;1.27;;;;;;;16.86;70.65;100547.16;4247388;33;34095;-75
2022/10/07 06:26:25;;;;;;;2.05;1.95;;;;;;;17.04;70.34;100547.75;4247345;33;34961;-75
2022/10/07 06:28:54;;;;;;;1.70;1.60;;;;;;;16.92;70.22;100546.19;4234707;33;34342;-75
2022/10/07 06:31:24;;;;;;;2.12;1.92;;;;;;;17.23;70.11;100541.25;4247529;33;33287;-76
2022/10/07 06:33:53;;;;;;;1.70;1.42;;;;;;;17.63;67.92;100537.84;4247748;33;33949;-74
2022/10/07 06:36:22;;;;;;;1.35;0.90;;;;;;;17.22;69.31;100544.78;4247377;33;35035;-76
2022/10/07 06:38:51;;;;;;;0.60;0.52;;;;;;;17.99;68.39;100537.97;4247149;33;35325;-74
2022/10/07 06:41:20;;;;;;;3.30;2.30;;;;;;;18.01;67.13;100543.22;4234542;33;33636;-74
2022/10/07 06:43:54;;;;;;;0.95;0.93;;;;;;;18.15;67.08;100535.00;4247435;33;34776;-74
2022/10/07 06:46:24;;;;;;;1.90;1.77;;;;;;;17.97;67.19;100531.87;4247539;33;35094;-81
2022/10/07 06:48:54;;;;;;;1.48;1.37;;;;;;;18.37;65.60;100530.97;4247134;33;34438;-74
2022/10/07 06:51:23;;;;;;;1.55;1.15;;;;;;;17.84;68.95;100529.50;4247573;33;33433;-74
2022/10/07 06:53:56;;;;;;;1.05;1.02;;;;;;;17.95;67.79;100533.69;4234574;33;33227;-79
2022/10/07 06:56:26;;;;;;;1.20;1.10;;;;;;;17.71;69.08;100529.75;4247155;33;36003;-80
2022/10/07 06:58:54;;;;;;;3.33;2.00;;;;;;;17.93;67.28;100527.56;4247622;33;34569;-75
2022/10/07 07:01:24;;;;;;;2.45;2.25;;;;;;;18.30;65.02;100529.38;4247254;33;33545;-76
2022/10/07 07:03:55;;;;;;;2.08;1.75;;;;;;;18.38;65.10;100529.19;4234892;33;35329;-77
2022/10/07 07:06:24;;;;;;;2.45;2.10;;;;;;;18.14;67.60;100527.97;4246928;33;35018;-78
2022/10/07 07:08:55;;;;;;;1.52;1.12;;;;;;;18.62;65.84;100530.38;4246916;33;34327;-74
2022/10/07 07:11:35;;;;;;;3.62;1.73;;;;;;;18.90;66.22;100540.22;4223184;33;33653;-75
2022/10/07 07:14:07;;;;;;;0.50;0.50;;;;;;;19.73;62.43;100535.31;4247109;33;33792;-79
2022/10/07 07:16:38;;;;;;;3.12;2.22;;;;;;;19.58;62.12;100531.34;4234456;33;35231;-79
2022/10/07 07:19:07;;;;;;;2.03;1.75;;;;;;;19.84;61.27;100538.53;4234082;33;35217;-82
2022/10/07 07:21:41;;;;;;;2.12;1.90;;;;;;;19.95;61.32;100538.22;4234584;33;32659;-77
2022/10/07 07:24:18;;;;;;;1.50;1.12;;;;;;;19.61;62.01;100538.31;4247241;33;34031;-80
2022/10/07 07:26:47;;;;;;;10.63;2.10;;;;;;;19.92;61.30;100532.16;4247039;33;35010;-78
2022/10/07 07:29:18;;;;;;;1.55;1.45;;;;;;;20.20;60.65;100537.47;4246900;33;34463;-75
2022/10/07 07:31:49;;;;;;;1.98;1.30;;;;;;;19.97;60.02;100540.81;4234554;33;32838;-82
2022/10/07 07:34:18;;;;;;;1.12;1.02;;;;;;;20.54;59.23;100537.25;4234594;33;33206;-77
2022/10/07 07:36:49;;;;;;;7.68;2.15;;;;;;;20.82;58.75;100539.00;4247003;33;35054;-80
2022/10/07 07:39:18;;;;;;;1.35;0.95;;;;;;;21.19;56.45;100541.25;4234405;33;34364;-85
2022/10/07 07:41:49;;;;;;;1.87;1.77;;;;;;;21.69;55.24;100529.75;4246912;33;33474;-83
2022/10/07 07:44:19;;;;;;;1.55;1.45;;;;;;;21.87;54.02;100530.81;4246870;33;34810;-75
2022/10/07 07:46:52;;;;;;;1.83;1.62;;;;;;;21.74;54.71;100526.91;4233924;33;35048;-75
2022/10/07 07:49:21;;;;;;;7.55;2.05;;;;;;;21.65;55.39;100532.56;4222719;33;33604;-74
2022/10/07 07:51:50;;;;;;;0.75;0.75;;;;;;;21.60;55.94;100527.44;4233851;33;33514;-80
2022/10/07 07:54:18;;;;;;;1.77;1.33;;;;;;;22.02;54.78;100526.69;4246745;33;33999;-75
2022/10/07 07:56:47;;;;;;;2.60;1.98;;;;;;;22.11;54.10;100523.72;4233939;33;35930;-75
2022/10/07 07:59:15;;;;;;;2.60;1.77;;;;;;;22.37;53.92;100526.25;4233270;33;33697;-75
2022/10/07 08:01:46;;;;;;;0.95;0.95;;;;;;;22.51;52.42;100521.25;4246451;33;33555;-76
2022/10/07 08:04:15;;;;;;;1.55;1.27;;;;;;;22.93;52.42;100523.03;4246299;33;34850;-78
2022/10/07 08:06:44;;;;;;;1.60;1.37;;;;;;;23.00;51.98;100526.28;4246527;33;35770;-86
2022/10/07 08:09:12;;;;;;;2.47;1.85;;;;;;;23.02;51.39;100521.75;4246151;33;34479;-84
2022/10/07 08:11:44;;;;;;;1.02;1.02;;;;;;;23.06;52.86;100521.56;4233950;33;34099;-81
2022/10/07 08:14:14;;;;;;;2.65;1.65;;;;;;;23.18;53.26;100517.53;4234157;33;34137;-83
2022/10/07 08:16:43;;;;;;;1.42;1.10;;;;;;;23.75;53.14;100514.94;4233679;33;35597;-88
2022/10/07 08:19:11;;;;;;;0.82;0.68;;;;;;;24.06;49.97;100518.00;4246927;33;34526;-88
2022/10/07 08:21:40;;;;;;;0.82;0.82;;;;;;;24.22;48.66;100508.31;4248129;33;34576;-86
2022/10/07 08:24:10;;;;;;;0.70;0.70;;;;;;;23.98;49.01;100503.25;4235553;33;34021;-88
2022/10/07 08:26:38;;;;;;;1.52;1.42;;;;;;;23.91;48.84;100512.44;4248376;33;34784;-86
2022/10/07 08:29:07;;;;;;;1.98;1.77;;;;;;;24.30;47.36;100514.16;4235318;33;34079;-88
2022/10/07 08:31:36;;;;;;;0.80;0.80;;;;;;;24.75;46.70;100511.94;4248173;33;33363;-87
2022/10/07 08:34:05;;;;;;;0.20;0.20;;;;;;;24.98;46.41;100508.09;4235405;33;34267;-88
2022/10/07 08:36:34;;;;;;;1.02;0.98;;;;;;;24.66;44.54;100497.28;4247974;33;35061;-75
2022/10/07 08:39:03;;;;;;;1.27;1.17;;;;;;;25.07;46.34;100496.94;4235337;33;34293;-75
2022/10/07 08:41:41;;;;;;;2.97;1.60;;;;;;;25.40;45.76;100503.28;4248034;33;33419;-75
2022/10/07 08:44:15;;;;;;;0.73;0.73;;;;;;;25.97;42.63;100497.50;4235463;33;34215;-75
2022/10/07 08:46:50;;;;;;;1.87;1.37;;;;;;;25.96;42.81;100495.75;4248050;33;35989;-75
2022/10/07 08:49:41;;;;;;;1.55;1.45;;;;;;;26.30;41.88;100490.22;4247885;33;34920;-75
2022/10/07 08:52:49;;;;;;;0.82;0.80;;;;;;;26.32;41.60;100492.81;4235115;33;31691;-78
2022/10/07 08:55:18;;;;;;;0.75;0.60;;;;;;;26.76;43.46;100497.38;4235364;33;33956;-76
2022/10/07 08:58:07;;;;;;;1.25;0.90;;;;;;;27.14;40.23;100491.53;4247856;33;35891;-75
2022/10/07 09:00:59;;;;;;;1.55;1.37;;;;;;;26.45;39.74;100484.94;4247916;33;34453;-75
2022/10/07 09:04:01;;;;;;;0.88;0.82;;;;;;;26.38;41.88;100481.75;4248030;33;34288;-78
2022/10/07 09:06:36;;;;;;;1.77;1.50;;;;;;;26.14;40.28;100480.50;4235379;33;33911;-85
2022/10/07 09:09:13;;;;;;;1.37;1.25;;;;;;;26.23;42.49;100483.53;4235184;33;35011;-85
2022/10/07 09:11:44;;;;;;;0.73;0.73;;;;;;;26.48;40.63;100474.91;4247940;33;35258;-77
2022/10/07 09:14:31;;;;;;;0.88;0.88;;;;;;;26.67;39.38;100477.41;4247806;33;34549;-75
2022/10/07 09:17:05;;;;;;;0.85;0.80;;;;;;;26.84;41.77;100472.84;4247799;33;33996;-75
2022/10/07 09:19:45;;;;;;;1.42;1.15;;;;;;;27.58;37.39;100468.31;4247900;33;35045;-85
2022/10/07 09:22:22;;;;;;;0.70;0.70;;;;;;;27.31;38.13;100466.41;4235289;33;34519;-75
2022/10/07 09:24:53;;;;;;;0.43;0.43;;;;;;;27.37;39.37;100471.41;4223613;33;31889;-87
2022/10/07 09:27:25;;;;;;;1.35;1.25;;;;;;;27.51;39.73;100466.97;4235340;33;33872;-88
2022/10/07 09:29:53;;;;;;;1.50;1.37;;;;;;;27.72;38.38;100465.59;4247878;33;34692;-80
2022/10/07 09:32:21;;;;;;;1.08;0.88;;;;;;;28.17;37.98;100460.91;4248009;33;35227;-75
2022/10/07 09:34:51;;;;;;;0.75;0.50;;;;;;;28.36;36.75;100454.31;4247761;33;33576;-81
2022/10/07 09:37:21;;;;;;;0.80;0.80;;;;;;;28.60;36.66;100451.81;4247565;33;34863;-85
2022/10/07 09:39:52;;;;;;;0.85;0.85;;;;;;;28.80;36.16;100453.16;4247777;33;35026;-85
2022/10/07 09:42:22;;;;;;;2.33;1.10;;;;;;;28.29;36.27;100445.84;4247972;33;35898;-87
2022/10/07 09:44:53;;;;;;;0.62;0.62;;;;;;;28.51;38.97;100444.37;4247840;33;33688;-87
2022/10/07 09:47:23;;;;;;;0.82;0.82;;;;;;;28.54;37.42;100447.75;4247823;33;34385;-89
2022/10/07 09:49:55;;;;;;;0.40;0.40;;;;;;;28.85;36.64;100437.56;4247946;33;34323;-88
2022/10/07 09:52:26;;;;;;;1.90;1.02;;;;;;;29.04;36.49;100433.63;4247576;33;35391;-86
2022/10/07 09:54:57;;;;;;;1.73;1.62;;;;;;;28.67;36.90;100426.31;4247709;33;33556;-84
2022/10/07 09:57:34;;;;;;;0.88;0.88;;;;;;;28.60;37.71;100429.53;4235091;33;34773;-84
2022/10/07 10:00:11;;;;;;;0.75;0.75;;;;;;;28.77;36.19;100420.31;4235004;33;35323;-85
2022/10/07 10:02:44;;;;;;;4.70;1.75;;;;;;;28.98;35.94;100428.66;4247465;33;35361;-87
2022/10/07 10:05:34;;;;;;;0.95;0.95;;;;;;;29.12;37.69;100415.16;4223472;33;33614;-85
2022/10/07 10:08:25;;;;;;;1.25;0.95;;;;;;;29.25;35.65;100413.34;4247537;33;33869;-85
2022/10/07 10:11:22;;;;;;;0.70;0.70;;;;;;;28.80;35.58;100404.00;4247511;33;35920;-82
2022/10/07 10:13:51;;;;;;;0.70;0.70;;;;;;;29.08;35.42;100402.91;4234572;33;34439;-86
2022/10/07 10:16:24;;;;;;;1.10;1.00;;;;;;;29.48;33.27;100405.44;4247479;33;33466;-86
2022/10/07 10:18:54;;;;;;;;;;;;;;;28.75;36.68;100407.03;4247799;33;33625;-82
2022/10/07 10:21:28;;;;;;;1.10;1.00;;;;;;;28.99;37.06;100399.06;4247348;33;35455;-87
2022/10/07 10:23:59;;;;;;;0.68;0.68;;;;;;;28.66;36.01;100399.63;4247662;33;35017;-87
2022/10/07 10:26:46;;;;;;;0.88;0.88;;;;;;;28.66;35.42;100404.97;4234806;33;33517;-84
2022/10/07 10:29:37;;;;;;;0.52;0.52;;;;;;;28.48;36.20;100397.22;4247344;33;34197;-86
2022/10/07 10:32:42;;;;;;;0.57;0.43;;;;;;;28.74;35.19;100400.78;4247491;33;35148;-89
2022/10/07 10:35:50;;;;;;;0.40;0.40;;;;;;;28.68;35.34;100378.94;4247388;33;35392;-87
2022/10/07 10:38:31;;;;;;;;;;;;;;;29.09;35.25;100383.19;4231390;33;33379;-85
2022/10/07 10:41:09;;;;;;;0.98;0.57;;;;;;;28.97;36.67;100376.03;4234365;33;34245;-86
2022/10/07 10:44:19;;;;;;;0.57;0.57;;;;;;;29.08;35.25;100381.47;4247454;33;35006;-87
2022/10/07 10:47:19;;;;;;;0.55;0.55;;;;;;;29.17;36.07;100375.47;4239369;33;34107;-85
2022/10/07 10:50:01;;;;;;;0.50;0.50;;;;;;;29.13;34.98;100369.44;4247399;33;33646;-85
2022/10/07 10:52:51;;;;;;;0.50;0.50;;;;;;;28.96;36.52;100356.41;4247314;33;34144;-86
2022/10/07 10:55:29;;;;;;;1.10;1.00;;;;;;;29.54;33.91;100356.69;4247317;33;35152;-87
2022/10/07 10:58:17;;;;;;;0.68;0.68;;;;;;;29.96;33.43;100345.56;4247468;33;34338;-84
2022/10/07 11:00:47;;;;;;;0.80;0.80;;;;;;;30.07;35.00;100353.66;4234666;33;33697;-85
2022/10/07 11:03:46;;;;;;;1.37;1.27;;;;;;;29.87;35.10;100344.44;4247185;33;33863;-86
2022/10/07 11:06:16;;;;;;;0.28;0.28;;;;;;;30.39;34.08;100348.53;4247088;33;35138;-87
2022/10/07 11:08:46;;;;;;;1.35;1.25;;;;;;;30.47;37.42;100339.00;4247151;33;34372;-76
2022/10/07 11:11:19;;;;;;;1.23;0.98;;;;;;;30.25;34.95;100329.91;4247005;33;33435;-76
2022/10/07 11:13:58;;;;;;;0.50;0.50;;;;;;;30.81;33.07;100324.63;4234323;33;34862;-87
2022/10/07 11:16:38;;;;;;;0.80;0.70;;;;;;;30.49;34.15;100326.31;4234424;33;34921;-83
2022/10/07 11:19:16;;;;;;;0.30;0.30;;;;;;;30.67;33.38;100322.13;4246985;33;35292;-86
2022/10/07 11:21:46;;;;;;;2.58;1.08;;;;;;;30.73;34.08;100307.38;4234625;33;33271;-78
2022/10/07 11:24:17;;;;;;;0.85;0.70;;;;;;;30.91;33.52;100299.66;4234583;33;33186;-88
2022/10/07 11:26:55;;;;;;;0.30;0.30;;;;;;;30.78;30.74;100299.81;4247114;33;36078;-76
2022/10/07 11:29:47;;;;;;;1.20;1.10;;;;;;;30.54;34.19;100299.91;4234543;33;35283;-96
2022/10/07 11:32:27;;;;;;;1.55;1.30;;;;;;;30.87;31.03;100299.06;4246905;33;34343;-79
2022/10/07 11:35:18;;;;;;;0.93;0.60;;;;;;;30.40;31.04;100291.09;4234328;33;33952;-81
2022/10/07 11:38:11;;;;;;;1.40;1.05;;;;;;;30.35;31.75;100287.91;4220405;33;34946;-83
2022/10/07 11:40:56;;;;;;;0.88;0.85;;;;;;;30.14;32.90;100286.88;4246653;33;35314;-90
2022/10/07 11:43:27;;;;;;;1.60;1.02;;;;;;;30.38;32.83;100276.94;4233060;33;33380;-76
2022/10/07 11:46:09;;;;;;;0.73;0.73;;;;;;;29.59;34.85;100274.00;4245168;33;34143;-76
2022/10/07 11:48:41;;;;;;;0.65;0.65;;;;;;;29.27;32.88;100271.03;4233760;33;34578;-78
2022/10/07 11:51:20;;;;;;;1.25;1.08;;;;;;;28.97;33.92;100256.22;4233465;33;34613;-87
2022/10/07 11:53:51;;;;;;;0.52;0.52;;;;;;;28.54;33.19;100254.81;4234166;33;33625;-76
2022/10/07 11:56:25;;;;;;;0.95;0.62;;;;;;;27.82;36.23;100251.75;4248125;33;34032;-76
2022/10/07 11:59:01;;;;;;;0.50;0.50;;;;;;;26.99;36.61;100247.37;4248258;33;36149;-86
2022/10/07 12:01:33;;;;;;;0.25;0.25;;;;;;;27.10;37.87;100244.00;4248271;33;34562;-86
2022/10/07 12:04:20;;;;;;;0.80;0.80;;;;;;;27.64;37.54;100234.25;4248509;33;34565;-87
2022/10/07 12:07:25;;;;;;;0.68;0.68;;;;;;;27.52;39.60;100243.97;4248611;33;34071;-81
2022/10/07 12:10:16;;;;;;;0.28;0.28;;;;;;;27.44;35.96;100228.44;4248309;33;35173;-79